Terminal Aerodrome Forecast
Issued by NWS Omaha/Valley, NE

Home | Current Version | Previous Version | Graphics & Text | Print | Product List | Glossary On
Versions: 1 2 3 4 5 6 7 8 9 10 11 12 13 14 15 16 17 18 19 20 21 22 23 24 25 26 27 28 29 30 31 32 33 34
000
FTUS43 KOAX 121920 AAA
TAFOFK
TAF AMD
KOFK 121920Z 1219/1318 01010KT P6SM SCT025 BKN050
      TEMPO 1220/1222 6SM -SHRA BKN025
     FM122200 01006KT P6SM SCT035 BKN050
     FM130100 VRB03KT P6SM FEW050
     FM130500 19004KT P6SM SKC
      TEMPO 1310/1313 4SM BR=

USA.gov is the U.S. government's official web portal to all federal, state and local government web resources and services.